Time;durP1;ratioP1;P1;durP2;ratioP2;P2;SDS_P1;SDS_P2;PMS_P1;PMS_P2;Temp;Humidity;BMP_temperature;BMP_pressure;BME280_temperature;BME280_humidity;BME280_pressure;Samples;Min_cycle;Max_cycle;Signal;HPM_P1;HPM_P2
2023/01/16 00:00:48;;;;;;;27.40;13.20;;;;;;;5.59;87.11;99849.94;3158783;28;20048;-80
2023/01/16 00:02:20;;;;;;;33.67;13.45;;;;;;;5.59;87.10;99849.94;3158476;28;20048;-79
2023/01/16 00:03:52;;;;;;;27.02;12.10;;;;;;;5.57;86.89;99841.38;3158676;28;20508;-80
2023/01/16 00:05:24;;;;;;;29.45;12.23;;;;;;;5.59;86.98;99849.06;3154456;28;20044;-79
2023/01/16 00:06:56;;;;;;;28.65;13.25;;;;;;;5.59;87.02;99842.19;3158610;28;20075;-79
2023/01/16 00:08:27;;;;;;;27.38;12.18;;;;;;;5.58;86.89;99839.63;3158615;28;20052;-80
2023/01/16 00:09:59;;;;;;;27.70;12.85;;;;;;;5.58;86.93;99847.38;3158319;28;20048;-80
2023/01/16 00:11:31;;;;;;;29.38;14.40;;;;;;;5.56;86.85;99834.50;3158105;28;20066;-77
2023/01/16 00:13:03;;;;;;;25.25;12.25;;;;;;;5.53;86.83;99834.59;3158747;28;20476;-78
2023/01/16 00:14:36;;;;;;;32.08;12.95;;;;;;;5.52;86.76;99839.78;3158145;28;20509;-77
2023/01/16 00:16:09;;;;;;;27.10;12.75;;;;;;;5.48;86.88;99832.09;3158163;28;20051;-77
2023/01/16 00:17:40;;;;;;;27.58;12.95;;;;;;;5.47;86.88;99829.53;3168291;28;20067;-78
2023/01/16 00:19:12;;;;;;;27.27;12.27;;;;;;;5.45;86.82;99829.59;3159774;27;20513;-78
2023/01/16 00:20:44;;;;;;;27.65;12.43;;;;;;;5.46;86.82;99827.84;3154140;28;20047;-78
2023/01/16 00:22:16;;;;;;;27.13;12.02;;;;;;;5.43;86.74;99825.34;3155114;28;20044;-76
2023/01/16 00:23:48;;;;;;;31.40;12.65;;;;;;;5.46;86.69;99833.00;3158128;28;20472;-77
2023/01/16 00:25:20;;;;;;;28.45;13.70;;;;;;;5.46;86.78;99827.84;3157867;28;20048;-74
2023/01/16 00:26:52;;;;;;;28.20;12.93;;;;;;;5.45;86.59;99821.84;3158017;28;20051;-78
2023/01/16 00:28:24;;;;;;;27.77;12.82;;;;;;;5.45;86.77;99828.75;3157586;28;20056;-78
2023/01/16 00:29:57;;;;;;;29.35;12.50;;;;;;;5.46;86.86;99828.69;3158601;28;20044;-78
2023/01/16 00:31:29;;;;;;;24.17;11.30;;;;;;;5.44;86.70;99824.44;3158382;28;20105;-78
2023/01/16 00:33:01;;;;;;;23.48;12.35;;;;;;;5.44;86.66;99820.16;3157802;28;20048;-78
2023/01/16 00:34:33;;;;;;;25.27;11.73;;;;;;;5.45;86.77;99826.16;3157736;28;20052;-78
2023/01/16 00:36:05;;;;;;;31.27;13.45;;;;;;;5.44;86.81;99827.91;3158098;28;20886;-78
2023/01/16 00:37:37;;;;;;;29.60;12.35;;;;;;;5.45;86.62;99831.31;3157914;28;20052;-78
2023/01/16 00:39:09;;;;;;;30.50;11.90;;;;;;;5.45;86.71;99831.31;3157798;28;20047;-78
2023/01/16 00:40:41;;;;;;;25.00;10.95;;;;;;;5.44;86.57;99825.31;3157991;28;20105;-78
2023/01/16 00:42:12;;;;;;;33.78;13.75;;;;;;;5.45;86.41;99828.75;3158148;28;20052;-78
2023/01/16 00:43:44;;;;;;;24.60;11.60;;;;;;;5.44;86.43;99821.84;3157875;28;20052;-77
2023/01/16 00:45:18;;;;;;;26.45;12.23;;;;;;;5.39;86.49;99824.56;3158307;28;20052;-78
2023/01/16 00:46:49;;;;;;;25.83;12.85;;;;;;;5.37;86.71;99817.75;3157928;28;20067;-78
2023/01/16 00:48:21;;;;;;;25.77;12.20;;;;;;;5.36;86.77;99816.91;3147831;28;20064;-77
2023/01/16 00:49:53;;;;;;;28.88;12.27;;;;;;;5.33;86.67;99809.22;3155687;28;20048;-77
2023/01/16 00:51:25;;;;;;;26.08;11.45;;;;;;;5.30;86.73;99808.44;3149535;28;20056;-79
2023/01/16 00:52:56;;;;;;;24.65;11.95;;;;;;;5.27;86.87;99811.94;3154677;28;20105;-78
2023/01/16 00:54:28;;;;;;;24.50;11.52;;;;;;;5.28;86.71;99810.22;3161151;28;20444;-78
2023/01/16 00:56:00;;;;;;;26.85;12.02;;;;;;;5.26;86.85;99805.06;3163832;28;20056;-77
2023/01/16 00:57:32;;;;;;;27.35;12.00;;;;;;;5.23;86.77;99811.19;3162222;28;20109;-78
2023/01/16 00:59:04;;;;;;;26.52;11.32;;;;;;;5.22;86.69;99806.88;3159773;28;20048;-78
2023/01/16 01:00:38;;;;;;;27.50;13.43;;;;;;;5.22;86.87;99814.63;3158243;28;20113;-79
2023/01/16 01:02:10;;;;;;;26.60;12.32;;;;;;;5.20;86.83;99806.06;3157772;28;20168;-79
2023/01/16 01:03:42;;;;;;;25.42;11.73;;;;;;;5.19;86.89;99809.53;3157889;28;20113;-79
2023/01/16 01:05:13;;;;;;;26.33;12.35;;;;;;;5.18;86.81;99807.00;3157967;28;20456;-80
2023/01/16 01:06:45;;;;;;;25.30;11.43;;;;;;;5.06;86.79;99791.78;3156545;28;20512;-80
2023/01/16 01:08:17;;;;;;;29.40;12.80;;;;;;;5.16;87.09;99801.00;3157397;28;20048;-80
2023/01/16 01:09:49;;;;;;;24.60;12.75;;;;;;;5.16;86.88;99806.19;3158475;28;20113;-80
2023/01/16 01:11:21;;;;;;;26.52;12.50;;;;;;;5.17;86.77;99811.28;3158364;28;20109;-79
2023/01/16 01:12:55;;;;;;;26.73;13.38;;;;;;;5.04;86.67;99791.81;3157537;28;20478;-79
2023/01/16 01:14:27;;;;;;;32.30;13.93;;;;;;;5.13;86.73;99803.66;3157844;28;20075;-78
2023/01/16 01:16:01;;;;;;;28.67;12.73;;;;;;;5.14;86.53;99810.53;3157662;28;20068;-77
2023/01/16 01:17:33;;;;;;;26.38;12.82;;;;;;;5.12;86.79;99807.16;3164523;28;20051;-78
2023/01/16 01:19:05;;;;;;;29.95;13.05;;;;;;;5.11;86.46;99805.44;3160617;28;20104;-79
2023/01/16 01:20:37;;;;;;;30.17;13.50;;;;;;;5.10;86.68;99798.56;3157846;28;20116;-80
2023/01/16 01:22:08;;;;;;;29.00;13.45;;;;;;;5.12;86.57;99804.56;3153605;28;20117;-79
2023/01/16 01:23:40;;;;;;;26.98;12.88;;;;;;;5.00;86.48;99791.03;3158312;28;20056;-79
2023/01/16 01:25:12;;;;;;;28.00;14.07;;;;;;;5.08;86.39;99796.00;3157543;28;20048;-79
2023/01/16 01:26:44;;;;;;;28.05;12.90;;;;;;;5.09;86.58;99797.72;3158255;28;20048;-78
2023/01/16 01:28:16;;;;;;;31.27;13.13;;;;;;;5.09;86.42;99794.28;3157803;28;20056;-80
2023/01/16 01:29:48;;;;;;;31.15;14.93;;;;;;;5.06;86.51;99791.78;3157531;28;20051;-78
2023/01/16 01:31:22;;;;;;;30.60;14.75;;;;;;;5.02;86.47;99794.41;3157424;28;20101;-77
2023/01/16 01:32:53;;;;;;;29.33;14.80;;;;;;;5.01;86.41;99795.31;3157391;28;20452;-78
2023/01/16 01:34:25;;;;;;;28.17;14.45;;;;;;;5.01;86.48;99790.16;3157135;28;20051;-77
2023/01/16 01:35:57;;;;;;;28.35;13.98;;;;;;;5.00;86.55;99790.19;3157406;28;20105;-77
2023/01/16 01:37:29;;;;;;;27.75;13.40;;;;;;;5.02;86.53;99780.66;3157055;28;20059;-77
2023/01/16 01:39:01;;;;;;;31.13;14.48;;;;;;;5.01;86.57;99789.31;3157545;28;20131;-77
2023/01/16 01:40:34;;;;;;;30.40;14.32;;;;;;;4.95;86.49;99776.53;3157314;28;20048;-78
2023/01/16 01:43:56;;;;;;;26.88;13.30;;;;;;;5.02;86.75;99788.41;3145355;28;20052;-77
2023/01/16 01:45:29;;;;;;;30.35;14.52;;;;;;;5.01;86.57;99787.56;3157339;28;20064;-77
2023/01/16 01:47:02;;;;;;;34.38;15.27;;;;;;;5.02;86.33;99785.84;3144450;28;20052;-77
2023/01/16 01:48:40;;;;;;;30.33;15.00;;;;;;;5.04;86.44;99788.41;3157449;28;20121;-78
2023/01/16 01:50:17;;;;;;;32.97;14.55;;;;;;;5.04;86.46;99786.66;3158618;28;20097;-76
2023/01/16 01:51:49;;;;;;;31.23;15.32;;;;;;;4.98;86.54;99774.72;3159314;28;20056;-77
2023/01/16 01:53:26;;;;;;;35.57;14.27;;;;;;;5.07;86.46;99784.00;3158019;28;20040;-76
2023/01/16 01:55:02;;;;;;;32.05;15.27;;;;;;;5.06;86.43;99777.16;3157658;28;20320;-77
2023/01/16 01:56:38;;;;;;;32.70;13.80;;;;;;;5.10;86.61;99783.94;3156782;28;20147;-77
2023/01/16 01:58:15;;;;;;;30.45;14.88;;;;;;;5.10;86.39;99777.94;3157050;28;20062;-76
2023/01/16 01:59:53;;;;;;;29.40;14.43;;;;;;;5.11;86.39;99780.47;3157190;28;20056;-77
2023/01/16 02:01:26;;;;;;;34.80;14.65;;;;;;;5.13;86.29;99777.84;3156960;28;20138;-79
2023/01/16 02:03:05;;;;;;;32.20;15.38;;;;;;;5.12;86.35;99779.59;3151864;28;20044;-79
2023/01/16 02:04:40;;;;;;;28.08;14.45;;;;;;;5.14;86.26;99774.38;3155621;28;20044;-80
2023/01/16 02:06:18;;;;;;;31.13;14.80;;;;;;;5.10;86.32;99773.59;3156954;28;20150;-78
2023/01/16 02:07:51;;;;;;;33.22;15.23;;;;;;;5.13;86.29;99772.69;3157391;28;20063;-78
2023/01/16 02:09:24;;;;;;;34.40;15.35;;;;;;;5.12;86.35;99774.44;3157301;28;20056;-77
2023/01/16 02:11:01;;;;;;;29.67;14.40;;;;;;;5.14;86.44;99774.38;3157102;28;20048;-79
2023/01/16 02:12:34;;;;;;;33.53;14.73;;;;;;;5.14;86.50;99775.22;3156727;28;20078;-79
2023/01/16 02:14:09;;;;;;;32.45;16.73;;;;;;;5.15;86.48;99776.94;3157273;28;20103;-80
2023/01/16 02:19:14;;;;;;;34.10;16.40;;;;;;;5.18;86.37;99773.44;3157231;28;20048;-81
2023/01/16 02:19:38;;;;;;;30.52;14.88;;;;;;;5.18;86.49;99776.88;3157009;28;20048;-80
2023/01/16 02:21:25;;;;;;;35.50;14.70;;;;;;;5.20;86.50;99782.81;3151243;28;20131;-78
2023/01/16 02:23:35;;;;;;;32.47;15.10;;;;;;;5.21;86.40;99778.53;3159525;28;20048;-80
2023/01/16 02:25:55;;;;;;;30.95;14.60;;;;;;;5.21;86.35;99775.94;3158740;28;20044;-80
2023/01/16 02:27:48;;;;;;;32.95;15.27;;;;;;;5.20;86.22;99769.91;3133049;28;20514;-80
2023/01/16 02:29:50;;;;;;;34.83;16.08;;;;;;;5.21;86.37;99774.22;3132809;28;20513;-79
2023/01/16 02:31:32;;;;;;;33.35;16.50;;;;;;;5.20;86.24;99769.91;3159653;28;20109;-79
2023/01/16 02:33:10;;;;;;;32.85;15.95;;;;;;;5.22;86.30;99773.31;3159727;28;20493;-80
2023/01/16 02:34:58;;;;;;;38.88;17.25;;;;;;;5.22;86.35;99777.63;3159600;28;20044;-81
2023/01/16 02:36:41;;;;;;;42.10;17.20;;;;;;;5.20;86.38;99779.41;3159330;28;20071;-81
2023/01/16 02:38:21;;;;;;;35.88;16.90;;;;;;;5.20;86.46;99777.66;3159342;28;20574;-81
2023/01/16 02:40:11;;;;;;;34.70;16.80;;;;;;;5.22;86.48;99775.06;3160001;28;20067;-82
2023/01/16 02:41:50;;;;;;;35.38;16.85;;;;;;;5.22;86.38;99768.16;3159463;28;20475;-80
2023/01/16 02:43:31;;;;;;;37.20;17.17;;;;;;;5.19;86.51;99763.06;3159426;28;20081;-81
2023/01/16 02:45:11;;;;;;;39.00;17.08;;;;;;;5.24;86.42;99776.72;3159527;28;20128;-80
2023/01/16 02:46:52;;;;;;;31.55;15.38;;;;;;;5.27;86.33;99785.28;3159519;28;20128;-81
2023/01/16 02:48:32;;;;;;;36.38;16.38;;;;;;;5.27;86.26;99777.53;3158042;28;20538;-81
2023/01/16 02:50:12;;;;;;;39.70;15.80;;;;;;;5.28;86.38;99776.66;3159173;28;20172;-81
2023/01/16 02:51:53;;;;;;;33.88;15.93;;;;;;;5.28;86.45;99779.22;3159260;28;20531;-81
2023/01/16 02:53:32;;;;;;;36.33;16.20;;;;;;;5.27;86.23;99780.97;3159406;28;20044;-81
2023/01/16 02:55:08;;;;;;;34.85;15.77;;;;;;;5.30;86.26;99778.31;3159202;28;20067;-81
2023/01/16 02:56:45;;;;;;;35.05;15.98;;;;;;;5.32;86.27;99778.25;3159279;28;20047;-80
2023/01/16 02:58:19;;;;;;;44.20;18.25;;;;;;;5.30;86.15;99777.47;3159050;28;20535;-81
2023/01/16 02:59:51;;;;;;;41.60;17.23;;;;;;;5.33;85.88;99779.97;3159132;28;20217;-81
2023/01/16 03:01:23;;;;;;;33.10;15.75;;;;;;;5.34;86.26;99773.91;3158987;28;20048;-81
2023/01/16 03:02:56;;;;;;;33.95;16.30;;;;;;;5.33;86.04;99764.47;3158558;28;20514;-81
2023/01/16 03:04:43;;;;;;;37.35;15.52;;;;;;;5.34;86.17;99771.34;3159294;28;20047;-80
2023/01/16 03:06:40;;;;;;;35.63;16.13;;;;;;;5.31;85.99;99764.50;3159589;28;20557;-78
2023/01/16 03:08:28;;;;;;;35.78;16.00;;;;;;;5.28;86.10;99762.00;3146934;28;20094;-77
2023/01/16 03:10:14;;;;;;;32.35;15.27;;;;;;;5.27;86.24;99765.47;3148495;28;20068;-79
2023/01/16 03:11:56;;;;;;;34.90;15.45;;;;;;;5.18;86.33;99758.78;3156277;28;20071;-80
2023/01/16 03:13:41;;;;;;;32.13;14.75;;;;;;;5.21;86.22;99756.13;3150757;28;20043;-80
2023/01/16 03:15:17;;;;;;;32.92;15.50;;;;;;;5.26;86.27;99756.00;3159085;28;20059;-80
2023/01/16 03:17:18;;;;;;;38.03;15.90;;;;;;;5.26;86.19;99743.09;3158941;28;20044;-79
2023/01/16 03:19:00;;;;;;;37.92;14.82;;;;;;;5.22;86.30;99739.75;3157271;28;20051;-81
2023/01/16 03:20:40;;;;;;;34.33;15.68;;;;;;;5.20;86.04;99744.09;3156654;28;20056;-78
2023/01/16 03:22:17;;;;;;;35.83;16.02;;;;;;;5.20;86.44;99745.84;3155064;28;20044;-77
2023/01/16 03:23:53;;;;;;;33.88;15.93;;;;;;;5.09;86.38;99729.75;3158578;28;20498;-76
2023/01/16 03:25:33;;;;;;;35.65;16.00;;;;;;;5.15;86.33;99743.38;3158657;28;20064;-76
2023/01/16 03:27:11;;;;;;;39.05;15.95;;;;;;;5.15;86.41;99745.13;3159116;28;20104;-76
2023/01/16 03:28:52;;;;;;;33.35;15.77;;;;;;;5.17;86.48;99743.31;3158863;28;20105;-78
2023/01/16 03:30:30;;;;;;;35.78;16.25;;;;;;;5.21;86.22;99744.97;3158143;28;20127;-79
2023/01/16 03:32:08;;;;;;;36.65;16.77;;;;;;;5.23;86.36;99738.00;3158185;28;20468;-79
2023/01/16 03:33:46;;;;;;;37.90;16.30;;;;;;;5.25;86.31;99731.09;3158683;28;20059;-79
2023/01/16 03:35:24;;;;;;;41.05;16.63;;;;;;;5.22;86.20;99723.41;3159071;28;20335;-78
2023/01/16 03:37:01;;;;;;;31.17;15.85;;;;;;;5.26;86.11;99727.59;3158198;28;20106;-77
2023/01/16 03:38:35;;;;;;;34.97;16.45;;;;;;;5.26;86.21;99732.78;3158496;28;20052;-77
2023/01/16 03:40:10;;;;;;;39.97;16.80;;;;;;;5.26;86.17;99722.44;3158762;28;20489;-77
2023/01/16 03:41:44;;;;;;;36.55;16.92;;;;;;;5.24;86.00;99721.66;3158788;28;20155;-77
2023/01/16 03:43:21;;;;;;;37.10;16.40;;;;;;;5.23;86.19;99720.81;3158552;28;20048;-76
2023/01/16 03:44:56;;;;;;;37.60;15.57;;;;;;;5.23;86.26;99723.41;3158406;28;20048;-75
2023/01/16 03:46:31;;;;;;;40.20;17.48;;;;;;;5.19;86.21;99710.59;3158598;28;20055;-78
2023/01/16 03:48:07;;;;;;;38.83;16.85;;;;;;;5.17;86.18;99709.78;3156342;28;20044;-79
2023/01/16 03:49:43;;;;;;;35.13;16.10;;;;;;;5.15;86.18;99717.56;3158900;28;20097;-78
2023/01/16 03:51:20;;;;;;;39.55;17.75;;;;;;;5.15;86.29;99720.16;3158716;28;20048;-78
2023/01/16 03:52:56;;;;;;;41.67;16.90;;;;;;;5.16;86.30;99723.56;3158659;28;20056;-77
2023/01/16 03:54:38;;;;;;;37.50;16.30;;;;;;;5.18;86.44;99716.66;3150729;28;20048;-78
2023/01/16 03:56:15;;;;;;;37.90;17.05;;;;;;;5.19;86.21;99710.59;3154826;28;20051;-78
2023/01/16 03:57:52;;;;;;;36.63;16.60;;;;;;;5.19;86.22;99714.00;3158814;28;20044;-80
2023/01/16 03:59:24;;;;;;;41.50;16.92;;;;;;;5.21;86.23;99711.41;3149590;28;20106;-80
2023/01/16 04:01:06;;;;;;;39.30;17.05;;;;;;;5.14;86.21;99699.53;3153563;28;20073;-80
2023/01/16 04:02:44;;;;;;;36.45;16.70;;;;;;;5.20;86.24;99707.94;3154646;28;20050;-81
2023/01/16 04:04:21;;;;;;;43.20;18.25;;;;;;;5.19;86.04;99716.59;3158531;28;20067;-80
2023/01/16 04:05:57;;;;;;;40.47;16.60;;;;;;;5.21;86.11;99712.25;3150520;28;20102;-78
2023/01/16 04:07:36;;;;;;;40.05;16.50;;;;;;;5.18;85.88;99717.50;3154170;28;20544;-78
2023/01/16 04:09:14;;;;;;;37.85;17.55;;;;;;;5.19;85.96;99711.44;3158330;28;20052;-79
2023/01/16 04:10:49;;;;;;;39.65;16.52;;;;;;;5.17;86.10;99710.59;3158268;28;20048;-78
2023/01/16 04:12:25;;;;;;;39.97;17.50;;;;;;;5.15;86.01;99702.06;3158987;28;20117;-79
2023/01/16 04:14:01;;;;;;;41.22;16.75;;;;;;;5.17;86.28;99707.19;3150403;28;20067;-79
2023/01/16 04:15:35;;;;;;;40.85;17.52;;;;;;;5.20;86.19;99701.94;3154129;28;20052;-80
2023/01/16 04:17:07;;;;;;;37.28;16.45;;;;;;;5.20;86.03;99700.22;3162831;28;20043;-79
2023/01/16 04:18:39;;;;;;;42.30;17.98;;;;;;;5.23;86.08;99695.00;3164753;27;20078;-78
2023/01/16 04:20:12;;;;;;;39.33;16.88;;;;;;;5.24;86.07;99688.94;3158091;28;20047;-80
2023/01/16 04:21:45;;;;;;;47.58;19.92;;;;;;;5.25;86.11;99692.38;3157772;28;20498;-79
2023/01/16 04:23:18;;;;;;;38.58;17.35;;;;;;;5.25;86.01;99682.88;3157633;28;20431;-79
2023/01/16 04:24:52;;;;;;;38.90;16.27;;;;;;;5.26;85.99;99681.13;3157839;28;20508;-80
2023/01/16 04:26:24;;;;;;;41.38;17.08;;;;;;;5.26;86.01;99675.97;3157793;28;20052;-79
2023/01/16 04:27:56;;;;;;;40.50;17.80;;;;;;;5.27;85.83;99677.69;3158170;28;20105;-79
2023/01/16 04:29:28;;;;;;;43.75;17.42;;;;;;;5.26;85.89;99670.81;3158137;28;20097;-79
2023/01/16 04:31:00;;;;;;;38.45;16.90;;;;;;;5.24;85.78;99675.19;3157695;28;20048;-79
2023/01/16 04:32:31;;;;;;;37.97;16.73;;;;;;;5.24;85.61;99673.44;3157959;28;20048;-78
2023/01/16 04:34:03;;;;;;;38.88;17.92;;;;;;;5.22;85.71;99675.22;3157964;28;20044;-79
2023/01/16 04:35:35;;;;;;;41.10;18.80;;;;;;;5.20;85.49;99669.22;3157825;28;20051;-77
2023/01/16 04:37:07;;;;;;;43.47;18.30;;;;;;;5.19;85.80;99671.88;3158164;28;20203;-78
2023/01/16 04:38:41;;;;;;;43.47;19.15;;;;;;;5.18;85.78;99668.44;3158174;28;20129;-78
2023/01/16 04:40:13;;;;;;;39.63;18.67;;;;;;;5.17;85.87;99669.31;3157794;28;20047;-78
2023/01/16 04:41:46;;;;;;;45.55;20.27;;;;;;;5.19;86.04;99666.69;3158162;28;20108;-78
2023/01/16 04:43:18;;;;;;;;;;;;;;;5.16;85.82;99670.19;3158228;28;20160;-78
2023/01/16 04:44:50;;;;;;;45.88;20.88;;;;;;;5.16;85.89;99666.78;3157339;28;19959;-78
2023/01/16 04:46:23;;;;;;;46.65;20.42;;;;;;;5.15;85.99;99662.50;3158107;28;20086;-78
2023/01/16 04:47:54;;;;;;;44.45;21.80;;;;;;;5.12;86.10;99662.59;3156240;28;20083;-78
2023/01/16 04:49:26;;;;;;;50.67;21.75;;;;;;;5.07;86.23;99660.13;3158343;28;20059;-77
2023/01/16 04:50:58;;;;;;;46.08;21.05;;;;;;;5.10;86.13;99664.34;3158014;28;20048;-78
2023/01/16 04:52:30;;;;;;;45.83;21.23;;;;;;;5.08;86.17;99666.97;3157561;28;20056;-79
2023/01/16 04:54:04;;;;;;;46.75;20.13;;;;;;;5.03;86.07;99661.09;3157853;28;20052;-78
2023/01/16 04:55:36;;;;;;;43.00;19.95;;;;;;;5.10;86.10;99665.19;3158645;28;20048;-79
2023/01/16 04:57:08;;;;;;;42.85;18.25;;;;;;;5.09;86.18;99665.22;3158300;28;20070;-76
2023/01/16 04:58:39;;;;;;;39.63;17.73;;;;;;;5.10;86.10;99674.69;3158871;28;20521;-78
2023/01/16 05:00:12;;;;;;;34.53;16.70;;;;;;;5.10;85.79;99661.78;3157376;28;20048;-77
2023/01/16 05:01:45;;;;;;;41.28;18.17;;;;;;;5.10;85.99;99665.19;3157523;28;20048;-77
2023/01/16 05:03:17;;;;;;;40.30;18.77;;;;;;;5.09;85.87;99671.25;3157882;28;20121;-77
2023/01/16 05:04:49;;;;;;;45.92;18.67;;;;;;;5.09;86.13;99662.63;3157576;28;20040;-77
2023/01/16 05:06:20;;;;;;;37.55;18.90;;;;;;;5.09;86.02;99663.50;3157689;28;20056;-76
2023/01/16 05:09:39;;;;;;;38.97;17.98;;;;;;;5.09;85.85;99667.81;3157200;28;20436;-78
2023/01/16 05:11:11;;;;;;;43.22;19.02;;;;;;;5.07;85.99;99667.00;3157583;28;20047;-78
2023/01/16 05:12:43;;;;;;;41.50;18.88;;;;;;;5.06;85.99;99663.59;3157125;28;20128;-71
2023/01/16 05:14:15;;;;;;;41.45;19.60;;;;;;;5.05;86.14;99667.03;3157202;28;20051;-77
2023/01/16 05:15:47;;;;;;;49.55;19.67;;;;;;;5.08;86.18;99671.28;3157533;28;20059;-74
2023/01/16 05:17:24;;;;;;;40.53;18.42;;;;;;;5.07;85.99;99673.03;3164169;28;20504;-77
2023/01/16 05:18:55;;;;;;;46.53;20.05;;;;;;;5.08;86.05;99666.97;3161076;28;20192;-71
2023/01/16 05:20:27;;;;;;;43.25;20.90;;;;;;;5.09;86.08;99670.38;3155406;28;20464;-71
2023/01/16 05:21:59;;;;;;;43.13;18.73;;;;;;;5.09;86.10;99672.97;3151399;28;20100;-76
2023/01/16 05:23:30;;;;;;;40.65;19.67;;;;;;;5.10;86.25;99675.53;3157058;28;20074;-71
2023/01/16 05:25:04;;;;;;;41.97;18.05;;;;;;;5.08;86.22;99672.13;3157248;28;20050;-72
2023/01/16 05:26:36;;;;;;;39.42;17.33;;;;;;;5.05;86.07;99659.28;3157093;28;20097;-70
2023/01/16 05:28:08;;;;;;;40.42;18.25;;;;;;;5.04;86.15;99660.19;3156913;28;20097;-71
2023/01/16 05:29:40;;;;;;;37.33;16.85;;;;;;;5.05;86.16;99655.88;3157538;28;20075;-70
2023/01/16 05:31:12;;;;;;;40.78;18.60;;;;;;;5.03;86.25;99653.34;3156940;28;20047;-72
2023/01/16 05:32:44;;;;;;;42.20;17.42;;;;;;;5.08;86.29;99656.63;3157153;28;20105;-79
2023/01/16 05:34:16;;;;;;;41.88;17.95;;;;;;;5.08;86.45;99654.06;3157067;28;20737;-75
2023/01/16 05:35:48;;;;;;;41.90;18.83;;;;;;;5.04;86.19;99647.28;3157332;28;20052;-72
2023/01/16 05:37:20;;;;;;;107.10;49.78;;;;;;;5.04;86.40;99649.88;3156892;28;20060;-69
2023/01/16 05:38:53;;;;;;;138.98;62.80;;;;;;;5.07;86.43;99644.63;3153962;28;20382;-69
2023/01/16 05:40:26;;;;;;;115.15;54.10;;;;;;;5.09;86.35;99642.00;3144206;28;20671;-74
2023/01/16 05:41:58;;;;;;;51.35;23.65;;;;;;;5.09;86.41;99637.69;3146645;28;20044;-72
2023/01/16 05:43:30;;;;;;;37.13;17.83;;;;;;;5.08;86.20;99638.56;3144850;28;20525;-71
2023/01/16 05:45:02;;;;;;;36.90;17.27;;;;;;;5.05;86.37;99630.91;3156675;28;20487;-71
2023/01/16 05:46:34;;;;;;;64.55;28.85;;;;;;;5.02;86.14;99633.56;3155879;28;20052;-71
2023/01/16 05:48:06;;;;;;;82.93;38.05;;;;;;;4.99;86.35;99623.31;3144429;28;20097;-71
2023/01/16 05:49:38;;;;;;;506.52;268.25;;;;;;;4.97;86.49;99631.13;3144074;28;20057;-76
2023/01/16 05:51:11;;;;;;;52.90;26.98;;;;;;;4.99;86.42;99636.22;3149534;28;20050;-75
2023/01/16 05:52:43;;;;;;;49.47;22.08;;;;;;;4.96;86.62;99633.72;3144331;28;20436;-78
2023/01/16 05:54:14;;;;;;;43.20;21.10;;;;;;;4.99;86.44;99636.22;3144054;28;20040;-74
2023/01/16 05:55:48;;;;;;;52.15;21.52;;;;;;;5.01;86.50;99644.78;3153904;28;20044;-73
2023/01/16 05:57:21;;;;;;;39.58;19.10;;;;;;;5.01;86.48;99634.47;3156973;28;20146;-73
2023/01/16 05:58:53;;;;;;;47.97;19.85;;;;;;;5.01;86.50;99635.31;3157097;28;20090;-73
2023/01/16 06:00:23;;;;;;;40.60;19.02;;;;;;;4.93;86.51;99626.06;3156188;28;20433;-70
2023/01/16 06:01:56;;;;;;;41.75;18.15;;;;;;;4.99;86.31;99637.06;3152850;28;20107;-71
2023/01/16 06:03:28;;;;;;;45.88;18.55;;;;;;;4.94;86.35;99633.78;3160442;28;20036;-68
2023/01/16 06:05:00;;;;;;;42.60;18.70;;;;;;;4.95;86.22;99632.03;3151254;28;20044;-71
2023/01/16 06:06:32;;;;;;;42.00;18.40;;;;;;;4.93;86.17;99623.47;3151741;28;20101;-75
2023/01/16 06:08:04;;;;;;;39.83;17.67;;;;;;;4.93;86.25;99629.47;3145032;28;20102;-78
2023/01/16 06:09:36;;;;;;;39.00;18.02;;;;;;;4.94;86.15;99627.75;3154161;28;20541;-75
2023/01/16 06:11:09;;;;;;;46.20;19.23;;;;;;;4.95;86.24;99625.13;3149682;28;20044;-73
2023/01/16 06:12:42;;;;;;;40.25;18.25;;;;;;;4.95;86.12;99629.44;3149484;28;21416;-74
2023/01/16 06:14:14;;;;;;;41.92;17.92;;;;;;;4.92;86.36;99632.94;3149675;28;20056;-74
2023/01/16 06:15:45;;;;;;;40.85;17.90;;;;;;;4.91;86.37;99628.69;3155503;28;20044;-68
2023/01/16 06:17:18;;;;;;;36.38;17.92;;;;;;;4.85;86.48;99627.97;3156605;28;20192;-69
2023/01/16 06:18:50;;;;;;;39.92;17.88;;;;;;;4.91;86.28;99638.13;3156913;28;20048;-73
2023/01/16 06:20:22;;;;;;;41.58;18.05;;;;;;;4.89;86.36;99642.50;3155601;28;20048;-67
2023/01/16 06:21:54;;;;;;;44.17;18.90;;;;;;;4.89;86.37;99639.94;3146871;28;20049;-71
2023/01/16 06:23:26;;;;;;;46.95;18.42;;;;;;;4.85;86.41;99634.00;3148219;28;20052;-72
2023/01/16 06:24:58;;;;;;;44.90;19.35;;;;;;;4.86;86.39;99637.44;3145447;28;20044;-74
2023/01/16 06:26:31;;;;;;;45.92;20.05;;;;;;;4.83;86.50;99634.91;3143600;28;20106;-72
2023/01/16 06:28:03;;;;;;;;;;;;;;;4.75;86.78;99630.78;3145456;28;20048;-73
2023/01/16 06:29:34;;;;;;;40.20;17.77;;;;;;;4.70;86.86;99635.22;3146308;28;19932;-73
2023/01/16 06:31:06;;;;;;;39.45;17.95;;;;;;;4.61;86.62;99613.94;3151898;28;20044;-73
2023/01/16 06:32:38;;;;;;;47.70;18.67;;;;;;;4.64;86.85;99624.19;3143819;28;20040;-70
2023/01/16 06:34:10;;;;;;;44.30;18.00;;;;;;;4.61;86.77;99627.66;3143286;28;20134;-71
2023/01/16 06:35:43;;;;;;;46.45;19.27;;;;;;;4.60;87.02;99626.00;3147664;28;20059;-67
2023/01/16 06:37:15;;;;;;;41.88;19.17;;;;;;;4.59;86.94;99632.03;3156555;28;20382;-70
2023/01/16 06:38:47;;;;;;;43.55;17.63;;;;;;;4.59;87.10;99633.78;3156852;28;20066;-71
2023/01/16 06:40:19;;;;;;;41.63;16.48;;;;;;;4.49;86.86;99615.91;3144802;28;20587;-76
2023/01/16 06:41:52;;;;;;;44.92;18.83;;;;;;;4.60;87.10;99632.88;3148933;28;20490;-72
2023/01/16 06:43:25;;;;;;;39.95;18.15;;;;;;;4.59;87.16;99632.03;3156641;28;20109;-72
2023/01/16 06:44:57;;;;;;;41.20;18.13;;;;;;;4.59;87.22;99626.88;3156331;28;20131;-73
2023/01/16 06:46:29;;;;;;;43.53;17.58;;;;;;;4.60;87.07;99626.00;3153842;28;20510;-74
2023/01/16 06:48:01;;;;;;;60.05;27.38;;;;;;;4.60;87.22;99617.41;3143161;28;20059;-68
2023/01/16 06:49:33;;;;;;;50.22;23.45;;;;;;;4.62;87.27;99626.81;3143988;28;20049;-69
2023/01/16 06:51:05;;;;;;;52.70;24.40;;;;;;;4.65;87.38;99625.91;3143730;28;20121;-73
2023/01/16 06:52:39;;;;;;;48.67;20.70;;;;;;;4.64;87.30;99619.84;3153583;28;20043;-71
2023/01/16 06:54:11;;;;;;;47.65;19.02;;;;;;;4.70;87.41;99621.44;3156596;28;20159;-72
2023/01/16 06:55:43;;;;;;;35.20;16.27;;;;;;;4.72;87.41;99620.53;3156534;28;20048;-71
2023/01/16 06:57:16;;;;;;;36.60;16.90;;;;;;;4.74;87.06;99620.50;3156765;28;20059;-76
2023/01/16 06:58:48;;;;;;;37.38;17.00;;;;;;;4.74;87.07;99618.78;3156547;28;20056;-72
2023/01/16 07:00:20;;;;;;;35.58;15.63;;;;;;;4.74;87.05;99620.50;3156433;28;20121;-71
2023/01/16 07:01:52;;;;;;;39.22;16.27;;;;;;;4.75;86.86;99610.13;3156060;28;21282;-73
2023/01/16 07:03:24;;;;;;;40.13;17.33;;;;;;;4.71;86.88;99603.38;3156712;28;20075;-74
2023/01/16 07:04:56;;;;;;;41.88;18.40;;;;;;;4.74;87.01;99611.03;3156370;28;20048;-70
2023/01/16 07:06:28;;;;;;;35.70;15.02;;;;;;;4.67;86.91;99599.16;3146978;28;20045;-80
2023/01/16 07:08:00;;;;;;;32.63;15.40;;;;;;;4.75;86.79;99606.72;3153906;28;20043;-77
2023/01/16 07:09:32;;;;;;;32.85;15.27;;;;;;;4.74;86.62;99599.88;3159169;28;20059;-73
2023/01/16 07:11:04;;;;;;;30.55;15.38;;;;;;;4.70;86.49;99595.66;3158605;28;20055;-73
2023/01/16 07:12:37;;;;;;;32.97;15.98;;;;;;;4.68;86.32;99598.28;3159017;28;20047;-77
2023/01/16 07:23:23;;;;;;;32.42;15.00;;;;;;;4.58;85.73;99573.59;3145556;28;20128;-73
2023/01/16 07:24:55;;;;;;;29.67;14.40;;;;;;;4.60;85.67;99569.25;3145165;28;20448;-75
2023/01/16 07:26:27;;;;;;;32.45;15.10;;;;;;;4.61;85.67;99572.66;3145996;28;20040;-74
2023/01/16 07:28:03;;;;;;;38.58;17.00;;;;;;;4.64;85.52;99563.13;3145354;28;20634;-73
2023/01/16 07:29:36;;;;;;;33.20;14.57;;;;;;;4.64;85.66;99557.97;3145659;28;20099;-72
2023/01/16 07:31:08;;;;;;;36.67;15.50;;;;;;;4.65;85.44;99551.94;3148154;28;20117;-73
2023/01/16 07:32:41;;;;;;;32.33;16.05;;;;;;;4.65;85.46;99548.50;3153198;28;20075;-73
2023/01/16 07:34:13;;;;;;;39.33;18.20;;;;;;;4.55;85.43;99532.41;3145834;28;20041;-74
2023/01/16 07:35:45;;;;;;;43.60;18.60;;;;;;;4.66;85.40;99551.03;3145814;28;20048;-71